createdAt,value
2022-12-19T00:00:13.980Z,38.75
2022-12-19T00:02:42.696Z,39.50
2022-12-19T00:05:10.974Z,40.05
2022-12-19T00:07:38.301Z,39.15
2022-12-19T00:10:06.673Z,42.17
2022-12-19T00:12:34.016Z,39.22
2022-12-19T00:15:01.953Z,37.17
2022-12-19T00:17:29.381Z,37.60
2022-12-19T00:19:57.053Z,42.00
2022-12-19T00:22:24.495Z,40.55
2022-12-19T00:24:52.031Z,39.40
2022-12-19T00:27:19.315Z,39.80
2022-12-19T00:29:47.475Z,39.35
2022-12-19T00:32:16.145Z,46.28
2022-12-19T00:34:44.009Z,43.70
2022-12-19T00:37:11.884Z,39.35
2022-12-19T00:39:39.215Z,41.05
2022-12-19T00:42:06.712Z,42.50
2022-12-19T00:44:34.089Z,42.92
2022-12-19T00:47:01.455Z,43.95
2022-12-19T00:49:28.694Z,41.45
2022-12-19T00:51:57.903Z,38.63
2022-12-19T00:54:25.353Z,40.92
2022-12-19T00:56:52.708Z,42.85
2022-12-19T00:59:20.113Z,42.83
2022-12-19T01:01:57.693Z,47.22
2022-12-19T01:04:29.602Z,47.60
2022-12-19T01:07:01.761Z,45.25
2022-12-19T01:12:19.395Z,41.28
2022-12-19T01:14:48.405Z,49.22
2022-12-19T01:17:15.909Z,47.47
2022-12-19T01:19:44.573Z,41.80
2022-12-19T01:22:15.106Z,46.38
2022-12-19T01:24:42.631Z,43.40
2022-12-19T01:27:09.918Z,47.38
2022-12-19T01:29:45.826Z,43.60
2022-12-19T01:32:21.723Z,46.15
2022-12-19T01:34:49.275Z,44.95
2022-12-19T01:37:20.438Z,45.05
2022-12-19T01:39:48.022Z,44.47
2022-12-19T01:42:17.771Z,43.72
2022-12-19T01:45:13.393Z,46.05
2022-12-19T01:47:53.774Z,43.15
2022-12-19T01:50:26.073Z,42.78
2022-12-19T01:52:54.084Z,46.17
2022-12-19T01:55:21.884Z,43.83
2022-12-19T01:57:51.482Z,42.03
2022-12-19T02:00:18.835Z,46.13
2022-12-19T02:02:59.562Z,42.50
2022-12-19T02:05:27.026Z,47.35
2022-12-19T02:07:54.589Z,43.22
2022-12-19T02:10:21.997Z,40.55
2022-12-19T02:12:50.043Z,40.60
2022-12-19T02:15:18.268Z,38.72
2022-12-19T02:18:16.050Z,38.83
2022-12-19T02:21:10.204Z,43.42
2022-12-19T02:24:19.967Z,46.40
2022-12-19T02:26:56.204Z,39.78
2022-12-19T02:29:46.879Z,43.95
2022-12-19T02:32:27.047Z,40.65
2022-12-19T02:35:13.764Z,37.40
2022-12-19T02:38:09.199Z,43.78
2022-12-19T02:40:46.554Z,39.83
2022-12-19T02:43:19.275Z,42.33
2022-12-19T02:45:48.505Z,42.10
2022-12-19T02:48:19.244Z,41.78
2022-12-19T02:50:49.911Z,43.92
2022-12-19T02:53:23.639Z,40.95
2022-12-19T02:56:14.548Z,42.00
2022-12-19T02:59:09.867Z,39.33
2022-12-19T03:01:51.148Z,41.67
2022-12-19T03:04:31.198Z,38.10
2022-12-19T03:07:21.234Z,40.00
2022-12-19T03:09:58.640Z,39.03
2022-12-19T03:12:36.498Z,36.50
2022-12-19T03:15:04.959Z,42.45
2022-12-19T03:17:37.100Z,39.95
2022-12-19T03:20:16.310Z,38.00
2022-12-19T03:22:43.713Z,42.80
2022-12-19T03:25:11.264Z,38.00
2022-12-19T03:27:39.851Z,40.75
2022-12-19T03:30:10.904Z,39.97
2022-12-19T03:37:48.796Z,39.63
2022-12-19T03:40:19.098Z,39.85
2022-12-19T03:43:06.741Z,42.90
2022-12-19T03:45:42.628Z,38.00
2022-12-19T03:48:25.117Z,39.92
2022-12-19T03:51:00.500Z,37.35
2022-12-19T03:53:45.363Z,40.40
2022-12-19T03:59:05.035Z,42.00
2022-12-19T04:01:34.194Z,38.72
2022-12-19T04:04:03.290Z,42.70
2022-12-19T04:06:33.158Z,42.47
2022-12-19T04:09:01.130Z,40.50
2022-12-19T04:11:34.322Z,41.60
2022-12-19T04:14:07.331Z,36.05
2022-12-19T04:16:44.498Z,42.55
2022-12-19T04:19:19.648Z,42.80
2022-12-19T04:22:01.923Z,40.88
2022-12-19T04:24:34.277Z,39.58
2022-12-19T04:27:05.696Z,40.42
2022-12-19T04:29:35.337Z,40.50
2022-12-19T04:32:04.971Z,35.25
2022-12-19T04:34:32.885Z,41.60
2022-12-19T04:37:03.948Z,49.40
2022-12-19T04:39:31.396Z,41.50
2022-12-19T04:41:58.987Z,44.05
2022-12-19T04:44:26.313Z,39.38
2022-12-19T04:46:53.810Z,42.03
2022-12-19T04:49:21.253Z,43.53
2022-12-19T04:51:48.972Z,45.15
2022-12-19T04:54:16.716Z,47.47
2022-12-19T04:56:44.121Z,43.05
2022-12-19T04:59:11.626Z,47.58
2022-12-19T05:01:39.055Z,46.38
2022-12-19T05:04:06.427Z,48.13
2022-12-19T05:06:33.736Z,48.13
2022-12-19T05:09:01.121Z,46.03
2022-12-19T05:11:28.546Z,42.88
2022-12-19T05:13:56.060Z,45.83
2022-12-19T05:16:23.359Z,42.38
2022-12-19T05:18:50.680Z,46.17
2022-12-19T05:21:17.964Z,45.88
2022-12-19T05:23:45.348Z,45.38
2022-12-19T05:26:13.056Z,48.25
2022-12-19T05:28:40.366Z,45.42
2022-12-19T05:31:10.538Z,47.50
2022-12-19T05:33:38.766Z,48.45
2022-12-19T05:36:06.595Z,48.25
2022-12-19T05:38:34.182Z,43.35
2022-12-19T05:41:17.018Z,47.13
2022-12-19T05:43:50.116Z,47.22
2022-12-19T05:46:17.510Z,46.85
2022-12-19T05:48:45.193Z,44.25
2022-12-19T05:51:13.230Z,50.95
2022-12-19T05:53:41.469Z,48.53
2022-12-19T05:56:17.447Z,48.10
2022-12-19T05:58:46.173Z,46.97
2022-12-19T06:01:17.513Z,46.67
2022-12-19T06:03:45.205Z,47.17
2022-12-19T06:06:15.131Z,47.78
2022-12-19T06:08:42.659Z,44.17
2022-12-19T06:11:11.097Z,48.33
2022-12-19T06:13:39.267Z,47.88
2022-12-19T06:16:13.285Z,47.28
2022-12-19T06:18:45.278Z,47.38
2022-12-19T06:21:14.550Z,53.60
2022-12-19T06:23:42.551Z,52.58
2022-12-19T06:26:18.336Z,47.03
2022-12-19T06:28:47.413Z,51.00
2022-12-19T06:31:15.675Z,52.15
2022-12-19T06:33:43.065Z,51.53
2022-12-19T06:36:22.132Z,46.60
2022-12-19T06:38:50.661Z,51.33
2022-12-19T06:41:37.504Z,52.30
2022-12-19T06:44:10.604Z,48.47
2022-12-19T06:49:08.228Z,51.50
2022-12-19T06:51:35.663Z,46.65
2022-12-19T06:54:03.326Z,48.20
2022-12-19T06:56:38.567Z,43.83
2022-12-19T06:59:07.311Z,46.72
2022-12-19T07:01:34.784Z,46.83
2022-12-19T07:04:02.238Z,49.05
2022-12-19T07:06:29.816Z,45.70
2022-12-19T07:08:57.613Z,48.47
2022-12-19T07:11:24.894Z,52.80
2022-12-19T07:13:52.220Z,47.90
2022-12-19T07:16:20.390Z,48.58
2022-12-19T07:18:47.697Z,48.67
2022-12-19T07:21:15.007Z,48.20
2022-12-19T07:23:42.649Z,45.28
2022-12-19T07:26:10.035Z,43.42
2022-12-19T07:28:38.337Z,44.13
2022-12-19T07:31:05.780Z,45.17
2022-12-19T07:33:33.668Z,42.95
2022-12-19T07:36:00.907Z,44.45
2022-12-19T07:38:28.158Z,45.50
2022-12-19T07:40:55.586Z,45.65
2022-12-19T07:43:22.839Z,48.35
2022-12-19T07:45:55.243Z,45.60
2022-12-19T07:48:23.389Z,46.97
2022-12-19T07:50:50.691Z,44.25
2022-12-19T07:53:18.031Z,42.13
2022-12-19T07:55:45.407Z,43.42
2022-12-19T07:58:15.885Z,39.53
2022-12-19T08:00:43.303Z,49.92
2022-12-19T08:03:10.641Z,44.78
2022-12-19T08:05:39.154Z,37.75
2022-12-19T08:08:06.388Z,43.05
2022-12-19T08:10:33.673Z,40.22
2022-12-19T08:13:00.927Z,41.20
2022-12-19T08:15:28.175Z,39.63
2022-12-19T08:17:56.176Z,39.10
2022-12-19T08:20:23.505Z,43.20
2022-12-19T08:22:51.457Z,41.47
2022-12-19T08:25:18.756Z,41.65
2022-12-19T08:27:46.026Z,43.90
2022-12-19T08:30:14.072Z,42.00
2022-12-19T08:32:41.358Z,42.15
2022-12-19T08:35:09.086Z,42.67
2022-12-19T08:37:36.692Z,40.80
2022-12-19T08:40:04.367Z,36.60
2022-12-19T08:42:32.387Z,33.95
2022-12-19T08:44:59.600Z,37.47
2022-12-19T08:47:26.974Z,39.67
2022-12-19T08:49:54.607Z,39.85
2022-12-19T08:52:21.828Z,36.72
2022-12-19T08:54:49.091Z,36.38
2022-12-19T08:57:16.551Z,38.05
2022-12-19T08:59:43.812Z,34.38
2022-12-19T09:02:12.229Z,33.53
2022-12-19T09:05:58.726Z,36.17
2022-12-19T09:07:27.064Z,36.47
2022-12-19T09:09:54.592Z,35.92
2022-12-19T09:12:21.902Z,36.35
2022-12-19T09:14:50.556Z,33.35
2022-12-19T09:17:17.890Z,33.85
2022-12-19T09:19:48.161Z,36.95
2022-12-19T09:22:16.531Z,33.28
2022-12-19T09:24:44.175Z,32.63
2022-12-19T09:27:11.652Z,38.13
2022-12-19T09:29:39.217Z,33.70
2022-12-19T09:32:06.507Z,37.80
2022-12-19T09:34:38.597Z,32.33
2022-12-19T09:37:17.037Z,30.20
2022-12-19T09:39:46.430Z,32.33
2022-12-19T09:42:41.721Z,31.73
2022-12-19T09:45:35.516Z,35.83
2022-12-19T09:48:10.797Z,34.17
2022-12-19T09:51:10.029Z,32.05
2022-12-19T09:53:59.611Z,30.05
2022-12-19T09:56:34.088Z,29.80
2022-12-19T09:59:39.943Z,28.65
2022-12-19T10:02:42.672Z,26.63
2022-12-19T10:05:50.561Z,36.45
2022-12-19T10:08:53.799Z,29.58
2022-12-19T10:12:39.749Z,28.05
2022-12-19T10:14:43.805Z,30.27
2022-12-19T10:17:29.238Z,30.52
2022-12-19T10:20:16.064Z,27.63
2022-12-19T10:23:10.886Z,29.33
2022-12-19T10:25:51.635Z,33.85
2022-12-19T10:28:48.329Z,26.63
2022-12-19T10:31:44.959Z,31.73
2022-12-19T10:34:22.418Z,25.95
2022-12-19T10:37:26.626Z,29.40
2022-12-19T10:39:54.981Z,29.15
2022-12-19T10:42:28.214Z,27.42
2022-12-19T10:44:59.208Z,26.33
2022-12-19T10:47:26.586Z,26.70
2022-12-19T10:49:53.905Z,27.42
2022-12-19T10:53:11.024Z,27.00
2022-12-19T10:55:50.810Z,25.70
2022-12-19T10:58:22.368Z,25.73
2022-12-19T11:01:10.561Z,26.58
2022-12-19T11:03:39.438Z,23.02
2022-12-19T11:06:07.339Z,27.25
2022-12-19T11:08:36.742Z,26.67
2022-12-19T11:12:52.263Z,25.98
2022-12-19T11:19:39.020Z,23.50
2022-12-19T11:23:03.474Z,24.70
2022-12-19T11:29:16.226Z,25.73
2022-12-19T11:29:36.497Z,24.65
2022-12-19T11:30:35.947Z,24.90
2022-12-19T11:30:43.668Z,28.02
2022-12-19T11:32:33.939Z,24.92
2022-12-19T11:34:22.561Z,25.13
2022-12-19T11:37:11.221Z,21.37
2022-12-19T11:39:52.566Z,26.15
2022-12-19T11:42:29.115Z,27.42
2022-12-19T11:45:11.463Z,24.98
2022-12-19T11:47:47.009Z,25.45
2022-12-19T11:51:01.491Z,23.90
2022-12-19T11:53:37.599Z,24.98
2022-12-19T11:58:51.386Z,24.73
2022-12-19T12:02:00.371Z,24.48
2022-12-19T12:04:52.655Z,24.80
2022-12-19T12:07:45.593Z,25.25
2022-12-19T12:16:22.290Z,25.55
2022-12-19T12:21:02.799Z,24.02
2022-12-19T12:31:01.887Z,24.13
2022-12-19T12:31:22.092Z,22.90
2022-12-19T12:31:31.195Z,24.33
2022-12-19T12:31:46.434Z,23.33
2022-12-19T12:32:02.998Z,24.15
2022-12-19T12:35:54.429Z,21.80
2022-12-19T12:38:45.991Z,21.65
2022-12-19T12:41:50.399Z,21.13
2022-12-19T12:44:18.320Z,20.65
2022-12-19T12:47:21.775Z,20.73
2022-12-19T12:50:02.211Z,21.92
2022-12-19T12:52:38.397Z,21.67
2022-12-19T12:55:19.443Z,18.52
2022-12-19T12:57:46.941Z,17.77
2022-12-19T13:00:14.373Z,21.00
2022-12-19T13:02:45.742Z,18.67
2022-12-19T13:05:43.685Z,24.77
2022-12-19T13:08:25.286Z,18.80
2022-12-19T13:10:58.951Z,19.42
2022-12-19T13:13:57.890Z,21.00
2022-12-19T13:16:43.684Z,21.48
2022-12-19T13:19:19.672Z,19.20
2022-12-19T13:22:05.134Z,19.23
2022-12-19T13:24:57.085Z,22.15
2022-12-19T13:27:24.809Z,17.70
2022-12-19T13:30:00.840Z,19.95
2022-12-19T13:32:53.347Z,18.02
2022-12-19T13:39:45.250Z,18.13
2022-12-19T15:42:57.021Z,12.60
2022-12-19T15:45:24.814Z,13.02
2022-12-19T15:47:52.662Z,15.60
2022-12-19T15:50:22.744Z,16.98
2022-12-19T15:52:52.324Z,14.15
2022-12-19T15:55:22.578Z,12.98
2022-12-19T15:57:58.076Z,13.35
2022-12-19T16:00:29.066Z,14.35
2022-12-19T16:03:23.377Z,12.82
2022-12-19T16:05:44.610Z,12.43
2022-12-19T16:08:21.406Z,12.50
2022-12-19T16:10:59.381Z,13.52
2022-12-19T16:13:32.055Z,13.23
2022-12-19T16:15:59.608Z,13.27
2022-12-19T16:18:27.248Z,14.15
2022-12-19T16:20:54.585Z,13.95
2022-12-19T16:23:25.283Z,13.43
2022-12-19T16:25:52.841Z,13.40
2022-12-19T16:28:28.728Z,13.00
2022-12-19T16:30:58.135Z,11.70
2022-12-19T16:33:30.826Z,15.43
2022-12-19T16:36:06.861Z,14.82
2022-12-19T16:38:35.135Z,12.98
2022-12-19T16:41:02.909Z,14.05
2022-12-19T16:43:31.759Z,13.85
2022-12-19T16:46:01.319Z,11.52
2022-12-19T16:48:48.958Z,12.70
2022-12-19T16:51:20.377Z,10.70
2022-12-19T16:53:49.288Z,13.02
2022-12-19T16:56:33.806Z,13.70
2022-12-19T16:59:04.396Z,12.75
2022-12-19T17:01:32.104Z,10.68
2022-12-19T17:03:59.507Z,12.75
2022-12-19T17:06:26.894Z,10.23
2022-12-19T17:08:54.132Z,10.68
2022-12-19T17:11:24.241Z,22.15
2022-12-19T17:13:55.792Z,12.55
2022-12-19T17:16:23.291Z,10.75
2022-12-19T17:18:50.795Z,12.70
2022-12-19T17:21:21.494Z,11.80
2022-12-19T17:23:50.241Z,11.57
2022-12-19T17:26:18.445Z,11.63
2022-12-19T17:28:48.984Z,11.27
2022-12-19T17:31:28.952Z,11.30
2022-12-19T17:33:57.944Z,11.88
2022-12-19T17:36:32.811Z,13.43
2022-12-19T17:39:30.991Z,11.60
2022-12-19T17:42:37.254Z,11.25
2022-12-19T17:45:05.467Z,10.77
2022-12-19T17:47:32.860Z,12.32
2022-12-19T17:50:00.294Z,10.13
2022-12-19T17:52:27.772Z,12.35
2022-12-19T17:54:55.067Z,11.10
2022-12-19T17:57:22.317Z,11.02
2022-12-19T17:59:49.624Z,11.68
2022-12-19T18:02:24.131Z,9.73
2022-12-19T18:07:19.471Z,12.05
2022-12-19T18:09:46.978Z,12.07
2022-12-19T18:12:14.340Z,18.73
2022-12-19T18:14:41.682Z,13.40
2022-12-19T18:17:12.604Z,12.85
2022-12-19T18:19:40.067Z,9.43
2022-12-19T18:22:14.310Z,9.82
2022-12-19T18:24:42.193Z,8.93
2022-12-19T18:27:10.618Z,9.27
2022-12-19T18:29:37.903Z,9.63
2022-12-19T18:32:05.327Z,9.50
2022-12-19T18:34:34.455Z,10.90
2022-12-19T18:37:02.669Z,9.38
2022-12-19T18:39:31.914Z,10.00
2022-12-19T18:41:59.310Z,8.65
2022-12-19T18:44:26.624Z,9.15
2022-12-19T18:46:53.986Z,9.25
2022-12-19T18:49:22.825Z,10.95
2022-12-19T18:51:50.159Z,10.20
2022-12-19T18:54:19.638Z,10.63
2022-12-19T18:56:47.284Z,8.30
2022-12-19T18:59:14.676Z,12.10
2022-12-19T19:01:44.876Z,7.82
2022-12-19T19:04:14.885Z,8.63
2022-12-19T19:06:50.344Z,7.70
2022-12-19T19:09:20.070Z,7.00
2022-12-19T19:11:54.538Z,8.00
2022-12-19T19:14:21.931Z,8.00
2022-12-19T19:16:49.268Z,8.20
2022-12-19T19:19:18.441Z,8.05
2022-12-19T19:21:45.716Z,6.80
2022-12-19T19:24:17.134Z,9.60
2022-12-19T19:26:44.713Z,7.05
2022-12-19T19:29:14.786Z,9.32
2022-12-19T19:31:45.787Z,7.72
2022-12-19T19:34:19.554Z,6.75
2022-12-19T19:36:49.760Z,10.03
2022-12-19T19:39:19.644Z,8.60
2022-12-19T19:41:46.916Z,7.80
2022-12-19T19:44:14.275Z,7.25
2022-12-19T19:46:41.603Z,8.82
2022-12-19T19:49:09.020Z,7.57
2022-12-19T19:51:36.514Z,7.05
2022-12-19T19:54:03.981Z,8.88
2022-12-19T19:56:32.314Z,7.93
2022-12-19T19:59:00.611Z,6.72
2022-12-19T20:01:28.310Z,8.75
2022-12-19T20:03:55.912Z,6.43
2022-12-19T20:06:23.359Z,7.57
2022-12-19T20:08:50.726Z,6.97
2022-12-19T20:11:18.131Z,6.47
2022-12-19T20:13:45.481Z,7.63
2022-12-19T20:16:18.385Z,9.30
2022-12-19T20:18:50.708Z,5.75
2022-12-19T20:21:19.740Z,6.40
2022-12-19T20:23:47.555Z,5.93
2022-12-19T20:26:16.996Z,6.30
2022-12-19T20:28:48.869Z,6.18
2022-12-19T20:31:19.282Z,6.25
2022-12-19T20:33:48.354Z,5.28
2022-12-19T20:36:16.585Z,3.97
2022-12-19T20:38:44.099Z,4.13
2022-12-19T20:41:11.561Z,4.05
2022-12-19T20:43:39.423Z,4.60
2022-12-19T20:46:13.141Z,3.65
2022-12-19T20:48:41.206Z,8.00
2022-12-19T20:51:08.978Z,3.08
2022-12-19T20:53:37.390Z,4.80
2022-12-19T20:56:06.681Z,5.40
2022-12-19T20:58:36.457Z,5.95
2022-12-19T21:01:18.041Z,2.78
2022-12-19T21:03:46.639Z,3.83
2022-12-19T21:06:18.299Z,3.92
2022-12-19T21:08:45.909Z,5.40
2022-12-19T21:11:15.485Z,3.13
2022-12-19T21:13:43.031Z,2.97
2022-12-19T21:16:14.552Z,3.05
2022-12-19T21:18:44.766Z,3.08
2022-12-19T21:21:15.271Z,4.70
2022-12-19T21:23:43.621Z,2.20
2022-12-19T21:26:11.026Z,3.33
2022-12-19T21:28:38.618Z,3.28
2022-12-19T21:31:11.846Z,2.42
2022-12-19T21:33:39.250Z,2.00
2022-12-19T21:36:16.560Z,3.28
2022-12-19T21:38:44.047Z,2.65
2022-12-19T21:41:13.019Z,3.70
2022-12-19T21:43:40.308Z,1.92
2022-12-19T21:46:09.746Z,2.00
2022-12-19T21:48:39.084Z,4.50
2022-12-19T21:51:07.618Z,3.33
2022-12-19T21:53:36.297Z,3.03
2022-12-19T21:56:12.881Z,2.40
2022-12-19T21:58:40.227Z,3.38
2022-12-19T22:01:14.597Z,2.75
2022-12-19T22:03:41.980Z,5.00
2022-12-19T22:06:16.123Z,3.05
2022-12-19T22:08:44.717Z,3.63
2022-12-19T22:11:17.806Z,1.70
2022-12-19T22:13:46.428Z,1.90
2022-12-19T22:16:14.554Z,2.05
2022-12-19T22:18:43.174Z,2.22
2022-12-19T22:21:12.829Z,1.85
2022-12-19T22:23:40.690Z,1.92
2022-12-19T22:26:14.154Z,3.00
2022-12-19T22:28:44.641Z,3.05
2022-12-19T22:31:22.250Z,1.48
2022-12-19T22:33:52.997Z,1.73
2022-12-19T22:36:27.583Z,2.20
2022-12-19T22:38:56.368Z,2.30
2022-12-19T22:41:24.622Z,2.28
2022-12-19T22:43:52.401Z,2.42
2022-12-19T22:46:28.241Z,2.35
2022-12-19T22:48:58.171Z,2.28
2022-12-19T22:51:26.762Z,1.65
2022-12-19T22:53:54.422Z,2.83
2022-12-19T22:56:24.437Z,2.00
2022-12-19T22:58:54.019Z,1.90
2022-12-19T23:01:27.533Z,2.42
2022-12-19T23:03:58.201Z,3.15
2022-12-19T23:06:28.402Z,1.55
2022-12-19T23:08:56.127Z,2.15
2022-12-19T23:11:30.251Z,2.58
2022-12-19T23:13:57.571Z,2.03
2022-12-19T23:16:24.933Z,3.22
2022-12-19T23:18:52.564Z,1.33
2022-12-19T23:21:21.826Z,1.40
2022-12-19T23:23:51.978Z,1.80
2022-12-19T23:26:28.375Z,2.55
2022-12-19T23:29:01.126Z,1.40
2022-12-19T23:31:29.379Z,2.80
2022-12-19T23:33:57.620Z,2.10
2022-12-19T23:37:00.349Z,1.60
2022-12-19T23:39:12.920Z,1.77
2022-12-19T23:41:40.563Z,1.40
2022-12-19T23:44:09.465Z,1.77
2022-12-19T23:46:37.128Z,2.85
2022-12-19T23:49:04.465Z,1.98
2022-12-19T23:51:31.903Z,2.67
2022-12-19T23:53:59.278Z,3.95
2022-12-19T23:56:28.529Z,2.40
2022-12-19T23:58:55.975Z,1.30
